sensor_id;sensor_type;location;lat;lon;timestamp;pressure;altitude;pressure_sealevel;temperature;humidity
16580;BME280;8402;51.466;6.806;2023-09-19T00:01:16;100514.88;;;18.71;80.86
16580;BME280;8402;51.466;6.806;2023-09-19T00:03:47;100515.66;;;18.68;80.59
16580;BME280;8402;51.466;6.806;2023-09-19T00:06:17;100518.69;;;18.63;81.39
16580;BME280;8402;51.466;6.806;2023-09-19T00:08:47;100512.78;;;18.61;81.32
16580;BME280;8402;51.466;6.806;2023-09-19T00:11:19;100509.94;;;18.54;81.30
16580;BME280;8402;51.466;6.806;2023-09-19T00:13:53;100517.00;;;18.51;81.34
16580;BME280;8402;51.466;6.806;2023-09-19T00:16:26;100520.38;;;18.41;81.24
16580;BME280;8402;51.466;6.806;2023-09-19T00:18:56;100514.47;;;18.39;81.83
16580;BME280;8402;51.466;6.806;2023-09-19T00:21:26;100513.69;;;18.38;81.70
16580;BME280;8402;51.466;6.806;2023-09-19T00:23:56;100518.38;;;18.38;81.71
16580;BME280;8402;51.466;6.806;2023-09-19T00:26:29;100521.50;;;18.36;82.10
16580;BME280;8402;51.466;6.806;2023-09-19T00:28:58;100512.81;;;18.34;82.17
16580;BME280;8402;51.466;6.806;2023-09-19T00:31:35;100524.66;;;18.38;81.79
16580;BME280;8402;51.466;6.806;2023-09-19T00:34:06;100523.81;;;18.34;81.86
16580;BME280;8402;51.466;6.806;2023-09-19T00:36:37;100528.47;;;18.30;82.25
16580;BME280;8402;51.466;6.806;2023-09-19T00:39:09;100525.28;;;18.28;82.11
16580;BME280;8402;51.466;6.806;2023-09-19T00:41:42;100529.22;;;18.27;82.19
16580;BME280;8402;51.466;6.806;2023-09-19T00:44:12;100517.78;;;18.22;82.88
16580;BME280;8402;51.466;6.806;2023-09-19T00:46:42;100531.44;;;18.18;82.75
16580;BME280;8402;51.466;6.806;2023-09-19T00:49:16;100532.50;;;18.10;83.28
16580;BME280;8402;51.466;6.806;2023-09-19T00:51:49;100537.59;;;18.08;83.46
16580;BME280;8402;51.466;6.806;2023-09-19T00:54:19;100535.56;;;18.05;83.62
16580;BME280;8402;51.466;6.806;2023-09-19T00:56:51;100544.97;;;18.04;83.73
16580;BME280;8402;51.466;6.806;2023-09-19T00:59:21;100541.34;;;18.00;84.07
16580;BME280;8402;51.466;6.806;2023-09-19T01:01:51;100552.78;;;18.02;83.46
16580;BME280;8402;51.466;6.806;2023-09-19T01:04:23;100550.44;;;18.04;83.56
16580;BME280;8402;51.466;6.806;2023-09-19T01:06:54;100553.19;;;18.04;83.60
16580;BME280;8402;51.466;6.806;2023-09-19T01:09:24;100550.75;;;17.99;83.73
16580;BME280;8402;51.466;6.806;2023-09-19T01:12:02;100563.28;;;17.96;83.79
16580;BME280;8402;51.466;6.806;2023-09-19T01:14:38;100560.91;;;17.95;83.80
16580;BME280;8402;51.466;6.806;2023-09-19T01:17:20;100564.31;;;17.88;83.69
16580;BME280;8402;51.466;6.806;2023-09-19T01:20:22;100573.22;;;17.81;84.87
16580;BME280;8402;51.466;6.806;2023-09-19T01:23:01;100570.06;;;17.79;84.72
16580;BME280;8402;51.466;6.806;2023-09-19T01:25:50;100574.69;;;17.75;84.77
16580;BME280;8402;51.466;6.806;2023-09-19T01:28:36;100572.81;;;17.79;84.78
16580;BME280;8402;51.466;6.806;2023-09-19T01:31:12;100578.72;;;17.81;84.44
16580;BME280;8402;51.466;6.806;2023-09-19T01:33:57;100579.50;;;17.82;83.92
16580;BME280;8402;51.466;6.806;2023-09-19T01:36:29;100581.47;;;17.81;84.09
16580;BME280;8402;51.466;6.806;2023-09-19T01:39:04;100586.09;;;17.77;84.40
16580;BME280;8402;51.466;6.806;2023-09-19T01:41:47;100600.56;;;17.74;83.89
16580;BME280;8402;51.466;6.806;2023-09-19T01:44:25;100604.34;;;17.70;83.86
16580;BME280;8402;51.466;6.806;2023-09-19T01:47:04;100601.09;;;17.64;83.63
16580;BME280;8402;51.466;6.806;2023-09-19T01:49:44;100606.31;;;17.69;83.39
16580;BME280;8402;51.466;6.806;2023-09-19T01:52:20;100593.75;;;17.68;83.50
16580;BME280;8402;51.466;6.806;2023-09-19T01:54:56;100599.81;;;17.77;83.08
16580;BME280;8402;51.466;6.806;2023-09-19T01:57:35;100597.38;;;17.72;83.10
16580;BME280;8402;51.466;6.806;2023-09-19T02:00:12;100602.78;;;17.69;82.98
16580;BME280;8402;51.466;6.806;2023-09-19T02:02:47;100598.38;;;17.64;81.92
16580;BME280;8402;51.466;6.806;2023-09-19T02:05:22;100603.44;;;17.62;82.45
16580;BME280;8402;51.466;6.806;2023-09-19T02:07:54;100610.50;;;17.63;82.67
16580;BME280;8402;51.466;6.806;2023-09-19T02:10:25;100600.78;;;17.66;82.23
16580;BME280;8402;51.466;6.806;2023-09-19T02:12:55;100614.81;;;17.64;82.20
16580;BME280;8402;51.466;6.806;2023-09-19T02:15:26;100611.97;;;17.57;82.02
16580;BME280;8402;51.466;6.806;2023-09-19T02:18:02;100619.75;;;17.55;82.25
16580;BME280;8402;51.466;6.806;2023-09-19T02:20:32;100613.50;;;17.54;82.43
16580;BME280;8402;51.466;6.806;2023-09-19T02:23:02;100621.81;;;17.58;81.97
16580;BME280;8402;51.466;6.806;2023-09-19T02:25:32;100627.44;;;17.46;82.03
16580;BME280;8402;51.466;6.806;2023-09-19T02:28:03;100618.34;;;17.42;82.36
16580;BME280;8402;51.466;6.806;2023-09-19T02:30:34;100626.56;;;17.42;82.64
16580;BME280;8402;51.466;6.806;2023-09-19T02:33:07;100624.97;;;17.41;82.42
16580;BME280;8402;51.466;6.806;2023-09-19T02:35:37;100625.28;;;17.36;82.74
16580;BME280;8402;51.466;6.806;2023-09-19T02:38:07;100626.44;;;17.34;82.81
16580;BME280;8402;51.466;6.806;2023-09-19T02:40:39;100628.69;;;17.29;83.06
16580;BME280;8402;51.466;6.806;2023-09-19T02:43:10;100638.69;;;17.21;83.62
16580;BME280;8402;51.466;6.806;2023-09-19T02:45:40;100638.28;;;17.19;83.46
16580;BME280;8402;51.466;6.806;2023-09-19T02:48:12;100646.88;;;17.18;83.51
16580;BME280;8402;51.466;6.806;2023-09-19T02:50:42;100647.16;;;17.13;83.70
16580;BME280;8402;51.466;6.806;2023-09-19T02:53:13;100640.88;;;17.12;83.52
16580;BME280;8402;51.466;6.806;2023-09-19T02:55:43;100652.25;;;17.14;83.84
16580;BME280;8402;51.466;6.806;2023-09-19T02:58:13;100651.84;;;17.12;83.66
16580;BME280;8402;51.466;6.806;2023-09-19T03:00:45;100659.63;;;17.10;83.43
16580;BME280;8402;51.466;6.806;2023-09-19T03:03:19;100644.63;;;17.04;83.08
16580;BME280;8402;51.466;6.806;2023-09-19T03:05:50;100657.16;;;17.05;82.64
16580;BME280;8402;51.466;6.806;2023-09-19T03:08:21;100662.66;;;17.05;82.70
16580;BME280;8402;51.466;6.806;2023-09-19T03:10:51;100658.69;;;17.02;82.70
16580;BME280;8402;51.466;6.806;2023-09-19T03:13:21;100655.53;;;17.00;82.55
16580;BME280;8402;51.466;6.806;2023-09-19T03:15:54;100661.06;;;17.04;82.18
16580;BME280;8402;51.466;6.806;2023-09-19T03:18:27;100651.25;;;17.03;81.81
16580;BME280;8402;51.466;6.806;2023-09-19T03:20:58;100659.06;;;17.01;81.72
16580;BME280;8402;51.466;6.806;2023-09-19T03:23:29;100657.91;;;17.02;81.79
16580;BME280;8402;51.466;6.806;2023-09-19T03:26:00;100656.16;;;16.94;81.42
16580;BME280;8402;51.466;6.806;2023-09-19T03:28:33;100658.44;;;16.92;81.84
16580;BME280;8402;51.466;6.806;2023-09-19T03:31:05;100666.25;;;16.90;81.56
16580;BME280;8402;51.466;6.806;2023-09-19T03:33:38;100672.00;;;16.85;81.81
16580;BME280;8402;51.466;6.806;2023-09-19T03:36:09;100664.94;;;16.84;81.64
16580;BME280;8402;51.466;6.806;2023-09-19T03:38:39;100663.78;;;16.85;81.62
16580;BME280;8402;51.466;6.806;2023-09-19T03:41:09;100668.09;;;16.86;81.75
16580;BME280;8402;51.466;6.806;2023-09-19T03:43:41;100667.69;;;16.84;81.72
16580;BME280;8402;51.466;6.806;2023-09-19T03:46:11;100655.06;;;16.79;81.69
16580;BME280;8402;51.466;6.806;2023-09-19T03:48:44;100665.66;;;16.81;81.94
16580;BME280;8402;51.466;6.806;2023-09-19T03:51:14;100664.50;;;16.82;82.08
16580;BME280;8402;51.466;6.806;2023-09-19T03:53:44;100664.94;;;16.84;81.62
16580;BME280;8402;51.466;6.806;2023-09-19T03:56:16;100664.94;;;16.84;81.97
16580;BME280;8402;51.466;6.806;2023-09-19T03:58:46;100654.75;;;16.84;81.99
16580;BME280;8402;51.466;6.806;2023-09-19T04:01:17;100655.56;;;16.85;81.88
16580;BME280;8402;51.466;6.806;2023-09-19T04:03:50;100651.38;;;16.91;81.95
16580;BME280;8402;51.466;6.806;2023-09-19T04:06:20;100652.28;;;16.95;81.72
16580;BME280;8402;51.466;6.806;2023-09-19T04:08:50;100657.03;;;16.98;82.03
16580;BME280;8402;51.466;6.806;2023-09-19T04:11:21;100664.09;;;16.99;81.65
16580;BME280;8402;51.466;6.806;2023-09-19T04:13:51;100653.13;;;16.99;81.74
16580;BME280;8402;51.466;6.806;2023-09-19T04:16:21;100659.50;;;17.03;81.51
16580;BME280;8402;51.466;6.806;2023-09-19T04:18:54;100661.00;;;17.00;81.45
16580;BME280;8402;51.466;6.806;2023-09-19T04:21:23;100665.75;;;17.03;81.53
16580;BME280;8402;51.466;6.806;2023-09-19T04:23:55;100668.78;;;16.98;81.59
16580;BME280;8402;51.466;6.806;2023-09-19T04:26:24;100654.28;;;16.98;81.64
16580;BME280;8402;51.466;6.806;2023-09-19T04:28:54;100665.66;;;17.00;81.99
16580;BME280;8402;51.466;6.806;2023-09-19T04:31:25;100668.13;;;17.05;81.95
16580;BME280;8402;51.466;6.806;2023-09-19T04:33:58;100663.09;;;17.07;81.72
16580;BME280;8402;51.466;6.806;2023-09-19T04:36:32;100666.97;;;17.06;81.94
16580;BME280;8402;51.466;6.806;2023-09-19T04:39:03;100668.50;;;17.03;81.58
16580;BME280;8402;51.466;6.806;2023-09-19T04:41:35;100664.25;;;17.06;81.67
16580;BME280;8402;51.466;6.806;2023-09-19T04:44:05;100663.97;;;17.11;81.95
16580;BME280;8402;51.466;6.806;2023-09-19T04:46:36;100667.44;;;17.08;81.74
16580;BME280;8402;51.466;6.806;2023-09-19T04:49:08;100658.75;;;17.06;81.54
16580;BME280;8402;51.466;6.806;2023-09-19T04:51:39;100670.31;;;16.96;82.53
16580;BME280;8402;51.466;6.806;2023-09-19T04:54:13;100674.91;;;16.92;82.45
16580;BME280;8402;51.466;6.806;2023-09-19T04:56:45;100672.47;;;16.87;82.92
16580;BME280;8402;51.466;6.806;2023-09-19T04:59:15;100678.22;;;16.82;82.73
16580;BME280;8402;51.466;6.806;2023-09-19T05:01:45;100683.16;;;16.76;83.21
16580;BME280;8402;51.466;6.806;2023-09-19T05:04:18;100685.13;;;16.75;83.10
16580;BME280;8402;51.466;6.806;2023-09-19T05:06:48;100700.81;;;16.78;83.11
16580;BME280;8402;51.466;6.806;2023-09-19T05:09:17;100705.88;;;16.76;83.21
16580;BME280;8402;51.466;6.806;2023-09-19T05:11:47;100705.81;;;16.73;83.93
16580;BME280;8402;51.466;6.806;2023-09-19T05:14:18;100708.88;;;16.71;83.93
16580;BME280;8402;51.466;6.806;2023-09-19T05:16:49;100722.16;;;16.69;83.70
16580;BME280;8402;51.466;6.806;2023-09-19T05:19:22;100722.94;;;16.70;83.98
16580;BME280;8402;51.466;6.806;2023-09-19T05:21:52;100732.28;;;16.69;84.20
16580;BME280;8402;51.466;6.806;2023-09-19T05:24:21;100731.50;;;16.68;84.13
16580;BME280;8402;51.466;6.806;2023-09-19T05:26:53;100736.19;;;16.68;83.92
16580;BME280;8402;51.466;6.806;2023-09-19T05:29:23;100737.69;;;16.65;84.19
16580;BME280;8402;51.466;6.806;2023-09-19T05:31:54;100739.97;;;16.63;84.09
16580;BME280;8402;51.466;6.806;2023-09-19T05:34:26;100747.41;;;16.63;83.99
16580;BME280;8402;51.466;6.806;2023-09-19T05:36:57;100738.75;;;16.61;84.16
16580;BME280;8402;51.466;6.806;2023-09-19T05:39:27;100750.94;;;16.63;84.53
16580;BME280;8402;51.466;6.806;2023-09-19T05:41:57;100756.50;;;16.67;84.38
16580;BME280;8402;51.466;6.806;2023-09-19T05:44:27;100758.88;;;16.68;84.33
16580;BME280;8402;51.466;6.806;2023-09-19T05:47:00;100754.13;;;16.65;84.05
16580;BME280;8402;51.466;6.806;2023-09-19T05:49:32;100756.50;;;16.67;84.03
16580;BME280;8402;51.466;6.806;2023-09-19T05:52:07;100759.59;;;16.65;84.40
16580;BME280;8402;51.466;6.806;2023-09-19T05:54:38;100760.41;;;16.66;84.35
16580;BME280;8402;51.466;6.806;2023-09-19T05:57:09;100762.78;;;16.67;84.23
16580;BME280;8402;51.466;6.806;2023-09-19T05:59:39;100767.47;;;16.67;84.38
16580;BME280;8402;51.466;6.806;2023-09-19T06:02:10;100764.38;;;16.68;84.09
16580;BME280;8402;51.466;6.806;2023-09-19T06:04:43;100755.03;;;16.69;84.07
16580;BME280;8402;51.466;6.806;2023-09-19T06:07:13;100765.72;;;16.74;84.13
16580;BME280;8402;51.466;6.806;2023-09-19T06:09:43;100770.78;;;16.72;83.93
16580;BME280;8402;51.466;6.806;2023-09-19T06:12:13;100761.41;;;16.73;83.78
16580;BME280;8402;51.466;6.806;2023-09-19T06:14:44;100766.09;;;16.73;83.67
16580;BME280;8402;51.466;6.806;2023-09-19T06:17:15;100765.28;;;16.72;84.02
16580;BME280;8402;51.466;6.806;2023-09-19T06:19:49;100762.97;;;16.74;83.65
16580;BME280;8402;51.466;6.806;2023-09-19T06:22:19;100767.41;;;16.79;84.17
16580;BME280;8402;51.466;6.806;2023-09-19T06:24:49;100758.81;;;16.81;83.64
16580;BME280;8402;51.466;6.806;2023-09-19T06:27:20;100757.31;;;16.83;83.46
16580;BME280;8402;51.466;6.806;2023-09-19T06:29:50;100752.25;;;16.85;83.64
16580;BME280;8402;51.466;6.806;2023-09-19T06:32:26;100748.41;;;16.86;83.07
16580;BME280;8402;51.466;6.806;2023-09-19T06:34:59;100748.47;;;16.90;83.27
16580;BME280;8402;51.466;6.806;2023-09-19T06:37:30;100750.94;;;16.95;83.44
16580;BME280;8402;51.466;6.806;2023-09-19T06:40:01;100762.75;;;16.99;83.01
16580;BME280;8402;51.466;6.806;2023-09-19T06:42:32;100763.38;;;17.08;82.91
16580;BME280;8402;51.466;6.806;2023-09-19T06:45:05;100754.84;;;17.13;82.25
16580;BME280;8402;51.466;6.806;2023-09-19T06:47:35;100767.94;;;17.20;82.52
16580;BME280;8402;51.466;6.806;2023-09-19T06:50:08;100774.22;;;17.20;82.44
16580;BME280;8402;51.466;6.806;2023-09-19T06:52:41;100771.84;;;17.19;82.32
16580;BME280;8402;51.466;6.806;2023-09-19T06:55:11;100767.25;;;17.23;82.24
16580;BME280;8402;51.466;6.806;2023-09-19T06:57:43;100767.31;;;17.26;82.40
16580;BME280;8402;51.466;6.806;2023-09-19T07:00:14;100784.63;;;17.30;82.79
16580;BME280;8402;51.466;6.806;2023-09-19T07:02:54;100784.72;;;17.34;82.63
16580;BME280;8402;51.466;6.806;2023-09-19T07:05:27;100782.91;;;17.42;82.90
16580;BME280;8402;51.466;6.806;2023-09-19T07:07:59;100773.25;;;17.48;82.99
16580;BME280;8402;51.466;6.806;2023-09-19T07:10:30;100776.22;;;17.58;82.24
16580;BME280;8402;51.466;6.806;2023-09-19T07:13:02;100775.22;;;17.67;82.52
16580;BME280;8402;51.466;6.806;2023-09-19T07:15:33;100787.88;;;17.71;82.42
16580;BME280;8402;51.466;6.806;2023-09-19T07:18:06;100784.41;;;17.74;82.26
16580;BME280;8402;51.466;6.806;2023-09-19T07:20:41;100786.09;;;17.79;82.07
16580;BME280;8402;51.466;6.806;2023-09-19T07:23:12;100792.06;;;17.84;82.27
16580;BME280;8402;51.466;6.806;2023-09-19T07:25:42;100791.25;;;17.84;81.72
16580;BME280;8402;51.466;6.806;2023-09-19T07:28:15;100787.44;;;17.88;82.33
16580;BME280;8402;51.466;6.806;2023-09-19T07:30:45;100799.34;;;17.96;81.53
16580;BME280;8402;51.466;6.806;2023-09-19T07:33:15;100794.66;;;17.97;81.52
16580;BME280;8402;51.466;6.806;2023-09-19T07:35:48;100789.78;;;17.86;81.37
16580;BME280;8402;51.466;6.806;2023-09-19T07:38:18;100795.44;;;17.97;81.66
16580;BME280;8402;51.466;6.806;2023-09-19T07:40:49;100786.13;;;18.02;82.41
16580;BME280;8402;51.466;6.806;2023-09-19T07:43:19;100797.25;;;18.09;81.93
16580;BME280;8402;51.466;6.806;2023-09-19T07:45:49;100800.38;;;18.07;81.55
16580;BME280;8402;51.466;6.806;2023-09-19T07:48:19;100789.59;;;17.99;81.81
16580;BME280;8402;51.466;6.806;2023-09-19T07:50:53;100794.38;;;18.02;81.53
16580;BME280;8402;51.466;6.806;2023-09-19T07:53:23;100797.97;;;18.06;82.40
16580;BME280;8402;51.466;6.806;2023-09-19T07:56:02;100795.69;;;18.08;81.47
16580;BME280;8402;51.466;6.806;2023-09-19T07:58:32;100794.94;;;18.11;81.20
16580;BME280;8402;51.466;6.806;2023-09-19T08:01:04;100806.78;;;18.15;80.99
16580;BME280;8402;51.466;6.806;2023-09-19T08:03:34;100813.13;;;18.19;81.14
16580;BME280;8402;51.466;6.806;2023-09-19T08:06:10;100804.72;;;18.31;81.28
16580;BME280;8402;51.466;6.806;2023-09-19T08:08:41;100813.59;;;18.44;80.77
16580;BME280;8402;51.466;6.806;2023-09-19T08:11:11;100814.53;;;18.52;80.14
16580;BME280;8402;51.466;6.806;2023-09-19T08:13:48;100810.19;;;18.51;80.06
16580;BME280;8402;51.466;6.806;2023-09-19T08:16:18;100811.56;;;18.64;80.64
16580;BME280;8402;51.466;6.806;2023-09-19T08:18:49;100806.22;;;18.71;79.80
16580;BME280;8402;51.466;6.806;2023-09-19T08:21:24;100808.38;;;18.81;79.65
16580;BME280;8402;51.466;6.806;2023-09-19T08:23:56;100813.56;;;18.86;79.13
16580;BME280;8402;51.466;6.806;2023-09-19T08:26:28;100816.66;;;18.85;79.01
16580;BME280;8402;51.466;6.806;2023-09-19T08:28:58;100827.78;;;18.92;79.53
16580;BME280;8402;51.466;6.806;2023-09-19T08:31:34;100823.94;;;18.96;79.30
16580;BME280;8402;51.466;6.806;2023-09-19T08:34:04;100827.53;;;19.01;78.90
16580;BME280;8402;51.466;6.806;2023-09-19T08:36:37;100824.03;;;19.04;79.37
16580;BME280;8402;51.466;6.806;2023-09-19T08:39:08;100832.81;;;19.13;78.72
16580;BME280;8402;51.466;6.806;2023-09-19T08:41:38;100831.13;;;19.31;78.84
16580;BME280;8402;51.466;6.806;2023-09-19T08:44:08;100833.34;;;19.48;77.40
16580;BME280;8402;51.466;6.806;2023-09-19T08:46:41;100822.53;;;19.59;76.51
16580;BME280;8402;51.466;6.806;2023-09-19T08:49:19;100830.91;;;19.70;76.18
16580;BME280;8402;51.466;6.806;2023-09-19T08:52:04;100829.81;;;19.78;75.01
16580;BME280;8402;51.466;6.806;2023-09-19T08:54:38;100826.66;;;19.76;74.88
16580;BME280;8402;51.466;6.806;2023-09-19T08:57:10;100832.59;;;19.78;74.38
16580;BME280;8402;51.466;6.806;2023-09-19T08:59:48;100830.28;;;19.84;75.17
16580;BME280;8402;51.466;6.806;2023-09-19T09:02:19;100826.09;;;19.93;74.93
16580;BME280;8402;51.466;6.806;2023-09-19T09:04:50;100826.19;;;20.00;74.14
16580;BME280;8402;51.466;6.806;2023-09-19T09:07:24;100822.28;;;20.05;73.93
16580;BME280;8402;51.466;6.806;2023-09-19T09:09:55;100817.72;;;20.20;74.67
16580;BME280;8402;51.466;6.806;2023-09-19T09:12:26;100814.38;;;20.37;73.90
16580;BME280;8402;51.466;6.806;2023-09-19T09:14:56;100819.63;;;20.49;72.86
16580;BME280;8402;51.466;6.806;2023-09-19T09:17:30;100820.53;;;20.60;72.12
16580;BME280;8402;51.466;6.806;2023-09-19T09:20:00;100815.84;;;20.65;71.17
16580;BME280;8402;51.466;6.806;2023-09-19T09:22:34;100810.41;;;20.72;70.72
16580;BME280;8402;51.466;6.806;2023-09-19T09:25:07;100816.00;;;20.82;71.85
16580;BME280;8402;51.466;6.806;2023-09-19T09:27:40;100813.16;;;20.72;69.27
16580;BME280;8402;51.466;6.806;2023-09-19T09:30:33;100815.91;;;20.72;69.66
16580;BME280;8402;51.466;6.806;2023-09-19T09:33:08;100819.94;;;20.85;69.32
16580;BME280;8402;51.466;6.806;2023-09-19T09:35:47;100812.91;;;20.91;68.44
16580;BME280;8402;51.466;6.806;2023-09-19T09:38:25;100822.34;;;20.90;68.49
16580;BME280;8402;51.466;6.806;2023-09-19T09:41:00;100804.69;;;20.98;69.47
16580;BME280;8402;51.466;6.806;2023-09-19T09:43:35;100807.13;;;21.10;68.58
16580;BME280;8402;51.466;6.806;2023-09-19T09:46:08;100808.38;;;21.16;68.81
16580;BME280;8402;51.466;6.806;2023-09-19T09:49:00;100803.59;;;21.13;68.44
16580;BME280;8402;51.466;6.806;2023-09-19T09:51:46;100808.31;;;21.09;67.62
16580;BME280;8402;51.466;6.806;2023-09-19T09:54:28;100816.59;;;21.09;67.70
16580;BME280;8402;51.466;6.806;2023-09-19T09:57:04;100814.63;;;21.13;67.85
16580;BME280;8402;51.466;6.806;2023-09-19T09:59:45;100814.03;;;21.38;68.31
16580;BME280;8402;51.466;6.806;2023-09-19T10:02:17;100803.91;;;21.63;67.87
16580;BME280;8402;51.466;6.806;2023-09-19T10:04:53;100812.25;;;21.74;66.95
16580;BME280;8402;51.466;6.806;2023-09-19T10:07:37;100816.53;;;21.64;66.11
16580;BME280;8402;51.466;6.806;2023-09-19T10:10:13;100821.19;;;21.46;66.00
16580;BME280;8402;51.466;6.806;2023-09-19T10:12:48;100802.22;;;21.37;65.91
16580;BME280;8402;51.466;6.806;2023-09-19T10:15:19;100808.06;;;21.29;65.17
16580;BME280;8402;51.466;6.806;2023-09-19T10:17:52;100813.13;;;21.23;66.16
16580;BME280;8402;51.466;6.806;2023-09-19T10:20:26;100800.88;;;21.21;64.80
16580;BME280;8402;51.466;6.806;2023-09-19T10:23:06;100795.06;;;21.29;65.91
16580;BME280;8402;51.466;6.806;2023-09-19T10:25:43;100793.44;;;21.25;65.55
16580;BME280;8402;51.466;6.806;2023-09-19T10:28:15;100788.06;;;21.46;66.18
16580;BME280;8402;51.466;6.806;2023-09-19T10:30:50;100786.88;;;21.47;65.67
16580;BME280;8402;51.466;6.806;2023-09-19T10:33:23;100785.72;;;21.52;65.62
16580;BME280;8402;51.466;6.806;2023-09-19T10:35:54;100796.84;;;21.66;65.04
16580;BME280;8402;51.466;6.806;2023-09-19T10:38:28;100795.34;;;21.90;64.04
16580;BME280;8402;51.466;6.806;2023-09-19T10:41:02;100778.00;;;22.00;62.19
16580;BME280;8402;51.466;6.806;2023-09-19T10:43:33;100770.56;;;22.18;63.08
16580;BME280;8402;51.466;6.806;2023-09-19T10:46:07;100777.31;;;22.24;60.67
16580;BME280;8402;51.466;6.806;2023-09-19T10:48:40;100763.09;;;22.22;60.58
16580;BME280;8402;51.466;6.806;2023-09-19T10:51:13;100775.72;;;22.23;60.09
16580;BME280;8402;51.466;6.806;2023-09-19T10:53:50;100789.09;;;22.14;60.09
16580;BME280;8402;51.466;6.806;2023-09-19T10:56:26;100773.75;;;22.28;60.83
16580;BME280;8402;51.466;6.806;2023-09-19T10:59:06;100786.00;;;22.37;60.11
16580;BME280;8402;51.466;6.806;2023-09-19T11:01:44;100771.00;;;22.38;59.29
16580;BME280;8402;51.466;6.806;2023-09-19T11:04:23;100782.84;;;22.39;60.18
16580;BME280;8402;51.466;6.806;2023-09-19T11:07:04;100780.84;;;22.29;60.35
16580;BME280;8402;51.466;6.806;2023-09-19T11:09:46;100772.56;;;22.36;60.98
16580;BME280;8402;51.466;6.806;2023-09-19T11:21:43;100779.72;;;22.51;59.05
16580;BME280;8402;51.466;6.806;2023-09-19T11:24:28;100781.28;;;22.66;59.17
16580;BME280;8402;51.466;6.806;2023-09-19T11:27:11;100776.53;;;22.70;59.45
16580;BME280;8402;51.466;6.806;2023-09-19T11:29:45;100784.81;;;22.77;59.85
16580;BME280;8402;51.466;6.806;2023-09-19T11:32:16;100790.78;;;22.90;59.41
16580;BME280;8402;51.466;6.806;2023-09-19T11:34:48;100784.47;;;23.00;58.97
16580;BME280;8402;51.466;6.806;2023-09-19T11:40:37;100766.66;;;22.80;58.28
16580;BME280;8402;51.466;6.806;2023-09-19T11:43:32;100783.63;;;22.64;57.75
16580;BME280;8402;51.466;6.806;2023-09-19T11:46:07;100772.56;;;22.78;58.82
16580;BME280;8402;51.466;6.806;2023-09-19T11:48:41;100779.31;;;22.92;58.74
16580;BME280;8402;51.466;6.806;2023-09-19T11:51:13;100782.09;;;22.88;57.18
16580;BME280;8402;51.466;6.806;2023-09-19T11:53:46;100771.03;;;22.88;57.07
16580;BME280;8402;51.466;6.806;2023-09-19T11:56:21;100770.22;;;22.91;56.74
16580;BME280;8402;51.466;6.806;2023-09-19T11:58:53;100747.69;;;22.93;57.40
16580;BME280;8402;51.466;6.806;2023-09-19T12:01:27;100747.28;;;23.01;57.92
16580;BME280;8402;51.466;6.806;2023-09-19T12:04:00;100745.69;;;23.04;57.40
16580;BME280;8402;51.466;6.806;2023-09-19T12:06:32;100752.81;;;23.05;55.71
16580;BME280;8402;51.466;6.806;2023-09-19T12:09:03;100748.84;;;23.06;55.86
16580;BME280;8402;51.466;6.806;2023-09-19T12:11:43;100736.22;;;22.91;54.78
16580;BME280;8402;51.466;6.806;2023-09-19T12:14:22;100746.53;;;22.87;55.57
16580;BME280;8402;51.466;6.806;2023-09-19T12:16:54;100750.47;;;22.86;55.34
16580;BME280;8402;51.466;6.806;2023-09-19T12:19:24;100744.50;;;22.84;56.48
16580;BME280;8402;51.466;6.806;2023-09-19T12:21:59;100737.03;;;22.80;56.33
16580;BME280;8402;51.466;6.806;2023-09-19T12:24:32;100739.38;;;22.93;56.63
16580;BME280;8402;51.466;6.806;2023-09-19T12:27:07;100737.78;;;22.99;55.26
16580;BME280;8402;51.466;6.806;2023-09-19T12:29:43;100727.53;;;22.96;54.41
16580;BME280;8402;51.466;6.806;2023-09-19T12:32:13;100734.25;;;22.95;54.84
16580;BME280;8402;51.466;6.806;2023-09-19T12:34:50;100721.22;;;22.88;53.57
16580;BME280;8402;51.466;6.806;2023-09-19T12:37:22;100712.91;;;22.92;54.33
16580;BME280;8402;51.466;6.806;2023-09-19T12:40:04;100718.44;;;22.77;53.47
16580;BME280;8402;51.466;6.806;2023-09-19T12:42:46;100709.38;;;22.70;53.63
16580;BME280;8402;51.466;6.806;2023-09-19T12:45:17;100708.56;;;22.76;54.59
16580;BME280;8402;51.466;6.806;2023-09-19T12:51:02;100710.94;;;22.82;53.93
16580;BME280;8402;51.466;6.806;2023-09-19T12:53:36;100705.41;;;22.92;54.26
16580;BME280;8402;51.466;6.806;2023-09-19T12:56:10;100712.88;;;23.06;55.09
16580;BME280;8402;51.466;6.806;2023-09-19T12:58:53;100707.75;;;23.08;53.47
16580;BME280;8402;51.466;6.806;2023-09-19T13:01:26;100714.44;;;23.14;53.46
16580;BME280;8402;51.466;6.806;2023-09-19T13:04:16;100706.94;;;23.04;52.77
16580;BME280;8402;51.466;6.806;2023-09-19T13:06:53;100696.69;;;23.01;53.19
16580;BME280;8402;51.466;6.806;2023-09-19T13:09:28;100710.94;;;22.96;53.33
16580;BME280;8402;51.466;6.806;2023-09-19T13:12:03;100714.47;;;22.93;52.59
16580;BME280;8402;51.466;6.806;2023-09-19T13:14:37;100725.97;;;22.95;54.46
16580;BME280;8402;51.466;6.806;2023-09-19T13:17:08;100718.84;;;23.01;54.17
16580;BME280;8402;51.466;6.806;2023-09-19T13:19:44;100727.13;;;23.01;53.93
16580;BME280;8402;51.466;6.806;2023-09-19T13:22:37;100710.91;;;23.03;54.07
16580;BME280;8402;51.466;6.806;2023-09-19T13:25:10;100707.78;;;23.01;54.31
16580;BME280;8402;51.466;6.806;2023-09-19T13:27:47;100712.50;;;23.08;54.07
16580;BME280;8402;51.466;6.806;2023-09-19T13:30:23;100721.59;;;23.01;54.15
16580;BME280;8402;51.466;6.806;2023-09-19T13:33:04;100721.63;;;22.87;53.93
16580;BME280;8402;51.466;6.806;2023-09-19T13:35:38;100710.13;;;22.77;54.22
16580;BME280;8402;51.466;6.806;2023-09-19T13:38:08;100720.44;;;22.73;55.78
16580;BME280;8402;51.466;6.806;2023-09-19T13:40:40;100714.50;;;22.71;55.30
16580;BME280;8402;51.466;6.806;2023-09-19T13:43:10;100719.66;;;22.62;55.45
16580;BME280;8402;51.466;6.806;2023-09-19T13:45:43;100714.91;;;22.59;55.73
16580;BME280;8402;51.466;6.806;2023-09-19T13:48:13;100706.22;;;22.57;56.25